Terminal Aerodrome Forecast
Issued by NWS Sioux Falls, SD

Home | Current Version | Previous Version | Text Only | Print | Product List | Glossary On
Versions: 1 2 3 4 5 6 7 8 9 10 11 12 13 14 15 16
000
FTUS43 KFSD 202326
TAFFSD
TAF
KFSD 202326Z 2100/2124 33020G30KT P6SM SCT070 SCT250
     FM210200 33011G17KT P6SM SKC
     FM210500 33010KT P6SM SKC
     FM211600 34012G17KT P6SM SCT045=

USA.gov is the U.S. government's official web portal to all federal, state and local government web resources and services.